sensor_id;sensor_type;location;lat;lon;timestamp;pressure;altitude;pressure_sealevel;temperature;humidity
67545;BME280;54380;47.770;11.150;2024-03-02T00:00:21;93775.28;;;6.94;63.63
67545;BME280;54380;47.770;11.150;2024-03-02T00:02:50;93767.13;;;6.90;63.27
67545;BME280;54380;47.770;11.150;2024-03-02T00:05:17;93771.03;;;6.82;63.66
67545;BME280;54380;47.770;11.150;2024-03-02T00:07:46;93766.72;;;6.71;63.67
67545;BME280;54380;47.770;11.150;2024-03-02T00:10:16;93764.31;;;6.59;64.05
67545;BME280;54380;47.770;11.150;2024-03-02T00:12:47;93766.91;;;6.54;64.02
67545;BME280;54380;47.770;11.150;2024-03-02T00:15:33;93766.66;;;6.56;64.65
67545;BME280;54380;47.770;11.150;2024-03-02T00:18:08;93766.91;;;6.54;64.52
67545;BME280;54380;47.770;11.150;2024-03-02T00:20:37;93765.84;;;6.50;64.36
67545;BME280;54380;47.770;11.150;2024-03-02T00:23:04;93757.44;;;6.48;64.20
67545;BME280;54380;47.770;11.150;2024-03-02T00:25:39;93754.81;;;6.48;64.50
67545;BME280;54380;47.770;11.150;2024-03-02T00:28:14;93751.91;;;6.50;64.78
67545;BME280;54380;47.770;11.150;2024-03-02T00:30:59;93743.81;;;6.51;64.40
67545;BME280;54380;47.770;11.150;2024-03-02T00:33:32;93735.91;;;6.46;64.62
67545;BME280;54380;47.770;11.150;2024-03-02T00:36:01;93735.34;;;6.39;64.20
67545;BME280;54380;47.770;11.150;2024-03-02T00:38:28;93735.56;;;6.32;64.40
67545;BME280;54380;47.770;11.150;2024-03-02T00:40:58;93736.06;;;6.29;65.12
67545;BME280;54380;47.770;11.150;2024-03-02T00:43:45;93737.88;;;6.29;65.03
67545;BME280;54380;47.770;11.150;2024-03-02T00:46:18;93747.03;;;6.26;65.30
67545;BME280;54380;47.770;11.150;2024-03-02T00:48:53;93747.34;;;6.30;64.79
67545;BME280;54380;47.770;11.150;2024-03-02T00:51:22;93744.22;;;6.33;65.21
67545;BME280;54380;47.770;11.150;2024-03-02T00:53:49;93748.44;;;6.39;65.06
67545;BME280;54380;47.770;11.150;2024-03-02T00:56:17;93745.06;;;6.44;64.88
67545;BME280;54380;47.770;11.150;2024-03-02T00:58:44;93743.53;;;6.48;64.94
67545;BME280;54380;47.770;11.150;2024-03-02T01:01:11;93741.97;;;6.52;64.60
67545;BME280;54380;47.770;11.150;2024-03-02T01:03:38;93740.69;;;6.54;64.58
67545;BME280;54380;47.770;11.150;2024-03-02T01:06:06;93741.78;;;6.58;64.69
67545;BME280;54380;47.770;11.150;2024-03-02T01:08:34;93741.00;;;6.63;64.82
67545;BME280;54380;47.770;11.150;2024-03-02T01:11:01;93734.72;;;6.64;64.68
67545;BME280;54380;47.770;11.150;2024-03-02T01:13:27;93735.78;;;6.68;64.31
67545;BME280;54380;47.770;11.150;2024-03-02T01:15:54;93729.50;;;6.69;64.34
67545;BME280;54380;47.770;11.150;2024-03-02T01:18:21;93732.38;;;6.68;64.09
67545;BME280;54380;47.770;11.150;2024-03-02T01:20:51;93732.63;;;6.66;64.25
67545;BME280;54380;47.770;11.150;2024-03-02T01:23:19;93733.13;;;6.63;64.60
67545;BME280;54380;47.770;11.150;2024-03-02T01:25:47;93735.75;;;6.63;64.21
67545;BME280;54380;47.770;11.150;2024-03-02T01:28:14;93735.75;;;6.63;64.43
67545;BME280;54380;47.770;11.150;2024-03-02T01:30:41;93736.00;;;6.62;64.33
67545;BME280;54380;47.770;11.150;2024-03-02T01:33:08;93727.59;;;6.59;64.26
67545;BME280;54380;47.770;11.150;2024-03-02T01:35:35;93731.75;;;6.55;64.32
67545;BME280;54380;47.770;11.150;2024-03-02T01:38:02;93724.69;;;6.51;64.78
67545;BME280;54380;47.770;11.150;2024-03-02T01:40:30;93729.13;;;6.50;64.93
67545;BME280;54380;47.770;11.150;2024-03-02T01:42:56;93725.72;;;6.55;65.00
67545;BME280;54380;47.770;11.150;2024-03-02T01:45:25;93719.19;;;6.57;65.03
67545;BME280;54380;47.770;11.150;2024-03-02T01:47:52;93714.50;;;6.59;65.07
67545;BME280;54380;47.770;11.150;2024-03-02T01:50:25;93721.31;;;6.60;64.56
67545;BME280;54380;47.770;11.150;2024-03-02T01:52:52;93712.41;;;6.62;64.46
67545;BME280;54380;47.770;11.150;2024-03-02T01:55:20;93709.53;;;6.63;64.64
67545;BME280;54380;47.770;11.150;2024-03-02T01:57:49;93717.41;;;6.68;64.73
67545;BME280;54380;47.770;11.150;2024-03-02T02:00:18;93722.44;;;6.70;64.36
67545;BME280;54380;47.770;11.150;2024-03-02T02:02:45;93723.75;;;6.72;64.40
67545;BME280;54380;47.770;11.150;2024-03-02T02:05:12;93718.50;;;6.72;64.52
67545;BME280;54380;47.770;11.150;2024-03-02T02:07:40;93717.72;;;6.72;64.34
67545;BME280;54380;47.770;11.150;2024-03-02T02:10:08;93720.06;;;6.73;64.57
67545;BME280;54380;47.770;11.150;2024-03-02T02:12:35;93718.00;;;6.75;64.05
67545;BME280;54380;47.770;11.150;2024-03-02T02:15:21;93718.53;;;6.77;64.24
67545;BME280;54380;47.770;11.150;2024-03-02T02:17:48;93718.00;;;6.75;64.38
67545;BME280;54380;47.770;11.150;2024-03-02T02:20:15;93714.03;;;6.73;64.20
67545;BME280;54380;47.770;11.150;2024-03-02T02:22:54;93713.81;;;6.74;64.34
67545;BME280;54380;47.770;11.150;2024-03-02T02:25:21;93706.19;;;6.73;63.93
67545;BME280;54380;47.770;11.150;2024-03-02T02:27:48;93705.63;;;6.71;63.93
67545;BME280;54380;47.770;11.150;2024-03-02T02:30:18;93703.00;;;6.71;64.20
67545;BME280;54380;47.770;11.150;2024-03-02T02:32:46;93701.16;;;6.71;64.09
67545;BME280;54380;47.770;11.150;2024-03-02T02:35:13;93714.56;;;6.70;64.24
67545;BME280;54380;47.770;11.150;2024-03-02T02:37:40;93714.78;;;6.68;64.02
67545;BME280;54380;47.770;11.150;2024-03-02T02:40:09;93714.28;;;6.71;64.23
67545;BME280;54380;47.770;11.150;2024-03-02T02:42:36;93713.81;;;6.74;64.01
67545;BME280;54380;47.770;11.150;2024-03-02T02:45:03;93718.00;;;6.75;64.35
67545;BME280;54380;47.770;11.150;2024-03-02T02:47:30;93710.38;;;6.74;63.91
67545;BME280;54380;47.770;11.150;2024-03-02T02:49:57;93706.19;;;6.73;64.12
67545;BME280;54380;47.770;11.150;2024-03-02T02:52:24;93705.94;;;6.74;63.81
67545;BME280;54380;47.770;11.150;2024-03-02T02:54:51;93703.78;;;6.71;64.13
67545;BME280;54380;47.770;11.150;2024-03-02T02:57:20;93705.91;;;6.69;64.23
67545;BME280;54380;47.770;11.150;2024-03-02T02:59:47;93708.25;;;6.71;63.98
67545;BME280;54380;47.770;11.150;2024-03-02T03:02:14;93708.56;;;6.74;64.10
67545;BME280;54380;47.770;11.150;2024-03-02T03:04:40;93704.63;;;6.77;63.81
67545;BME280;54380;47.770;11.150;2024-03-02T03:07:07;93711.44;;;6.78;63.72
67545;BME280;54380;47.770;11.150;2024-03-02T03:09:37;93709.88;;;6.77;63.75
67545;BME280;54380;47.770;11.150;2024-03-02T03:12:04;93709.88;;;6.77;63.67
67545;BME280;54380;47.770;11.150;2024-03-02T03:14:32;93715.38;;;6.75;63.68
67545;BME280;54380;47.770;11.150;2024-03-02T03:16:59;93711.41;;;6.73;63.95
67545;BME280;54380;47.770;11.150;2024-03-02T03:19:26;93712.72;;;6.70;63.93
67545;BME280;54380;47.770;11.150;2024-03-02T03:21:52;93707.44;;;6.65;63.67
67545;BME280;54380;47.770;11.150;2024-03-02T03:24:19;93701.91;;;6.56;64.14
67545;BME280;54380;47.770;11.150;2024-03-02T03:26:46;93707.31;;;6.45;63.87
67545;BME280;54380;47.770;11.150;2024-03-02T03:29:13;93710.97;;;6.38;64.40
67545;BME280;54380;47.770;11.150;2024-03-02T03:31:42;93713.81;;;6.32;64.94
67545;BME280;54380;47.770;11.150;2024-03-02T03:34:08;93721.69;;;6.32;65.07
67545;BME280;54380;47.770;11.150;2024-03-02T03:36:36;93723.78;;;6.35;65.25
67545;BME280;54380;47.770;11.150;2024-03-02T03:39:03;93733.47;;;6.34;64.58
67545;BME280;54380;47.770;11.150;2024-03-02T03:41:31;93734.00;;;6.36;64.81
67545;BME280;54380;47.770;11.150;2024-03-02T03:43:58;93740.84;;;6.37;64.95
67545;BME280;54380;47.770;11.150;2024-03-02T03:46:25;93749.50;;;6.38;65.11
67545;BME280;54380;47.770;11.150;2024-03-02T03:48:53;93742.94;;;6.41;65.11
67545;BME280;54380;47.770;11.150;2024-03-02T03:51:19;93744.53;;;6.42;65.26
67545;BME280;54380;47.770;11.150;2024-03-02T03:53:46;93753.72;;;6.44;64.98
67545;BME280;54380;47.770;11.150;2024-03-02T03:56:13;93754.25;;;6.46;64.94
67545;BME280;54380;47.770;11.150;2024-03-02T03:58:40;93757.44;;;6.48;64.55
67545;BME280;54380;47.770;11.150;2024-03-02T04:01:07;93759.28;;;6.53;64.93
67545;BME280;54380;47.770;11.150;2024-03-02T04:03:34;93755.66;;;6.59;64.74
67545;BME280;54380;47.770;11.150;2024-03-02T04:06:02;93763.03;;;6.62;64.50
67545;BME280;54380;47.770;11.150;2024-03-02T04:08:29;93767.22;;;6.63;64.49
67545;BME280;54380;47.770;11.150;2024-03-02T04:10:56;93762.78;;;6.64;64.50
67545;BME280;54380;47.770;11.150;2024-03-02T04:13:22;93766.41;;;6.63;64.82
67545;BME280;54380;47.770;11.150;2024-03-02T04:15:49;93768.25;;;6.62;64.47
67545;BME280;54380;47.770;11.150;2024-03-02T04:18:16;93767.75;;;6.65;64.47
67545;BME280;54380;47.770;11.150;2024-03-02T04:20:43;93769.88;;;6.68;64.47
67545;BME280;54380;47.770;11.150;2024-03-02T04:23:11;93777.50;;;6.70;64.17
67545;BME280;54380;47.770;11.150;2024-03-02T04:25:37;93768.84;;;6.69;64.32
67545;BME280;54380;47.770;11.150;2024-03-02T04:28:04;93775.06;;;6.63;64.35
67545;BME280;54380;47.770;11.150;2024-03-02T04:30:31;93768.97;;;6.52;64.48
67545;BME280;54380;47.770;11.150;2024-03-02T04:32:58;93771.81;;;6.46;64.96
67545;BME280;54380;47.770;11.150;2024-03-02T04:35:25;93775.19;;;6.41;65.12
67545;BME280;54380;47.770;11.150;2024-03-02T04:37:52;93777.53;;;6.37;64.86
67545;BME280;54380;47.770;11.150;2024-03-02T04:40:20;93774.09;;;6.32;64.91
67545;BME280;54380;47.770;11.150;2024-03-02T04:42:46;93771.94;;;6.29;65.51
67545;BME280;54380;47.770;11.150;2024-03-02T04:45:13;93772.44;;;6.26;65.50
67545;BME280;54380;47.770;11.150;2024-03-02T04:47:40;93777.97;;;6.24;65.65
67545;BME280;54380;47.770;11.150;2024-03-02T04:50:07;93776.88;;;6.20;66.15
67545;BME280;54380;47.770;11.150;2024-03-02T04:52:34;93789.13;;;6.14;66.02
67545;BME280;54380;47.770;11.150;2024-03-02T04:55:01;93787.28;;;6.15;66.26
67545;BME280;54380;47.770;11.150;2024-03-02T04:57:45;93788.88;;;6.16;66.29
67545;BME280;54380;47.770;11.150;2024-03-02T05:00:13;93795.19;;;6.20;66.15
67545;BME280;54380;47.770;11.150;2024-03-02T05:02:40;93797.53;;;6.17;66.40
67545;BME280;54380;47.770;11.150;2024-03-02T05:05:07;93802.50;;;6.18;66.24
67545;BME280;54380;47.770;11.150;2024-03-02T05:07:33;93804.41;;;6.23;66.16
67545;BME280;54380;47.770;11.150;2024-03-02T05:10:00;93802.06;;;6.26;66.09
67545;BME280;54380;47.770;11.150;2024-03-02T05:12:27;93807.84;;;6.28;66.03
67545;BME280;54380;47.770;11.150;2024-03-02T05:15:12;93806.06;;;6.34;66.13
67545;BME280;54380;47.770;11.150;2024-03-02T05:17:39;93812.94;;;6.40;65.75
67545;BME280;54380;47.770;11.150;2024-03-02T05:20:08;93809.00;;;6.37;65.55
67545;BME280;54380;47.770;11.150;2024-03-02T05:22:35;93805.88;;;6.41;65.78
67545;BME280;54380;47.770;11.150;2024-03-02T05:25:02;93805.91;;;6.46;65.38
67545;BME280;54380;47.770;11.150;2024-03-02T05:27:29;93808.81;;;6.49;65.86
67545;BME280;54380;47.770;11.150;2024-03-02T05:29:57;93808.28;;;6.52;65.45
67545;BME280;54380;47.770;11.150;2024-03-02T05:32:26;93807.56;;;6.57;64.87
67545;BME280;54380;47.770;11.150;2024-03-02T05:34:52;93805.44;;;6.54;65.28
67545;BME280;54380;47.770;11.150;2024-03-02T05:37:19;93803.31;;;6.51;65.18
67545;BME280;54380;47.770;11.150;2024-03-02T05:39:46;93803.31;;;6.51;65.17
67545;BME280;54380;47.770;11.150;2024-03-02T05:42:13;93811.19;;;6.51;65.03
67545;BME280;54380;47.770;11.150;2024-03-02T05:44:39;93804.34;;;6.50;64.68
67545;BME280;54380;47.770;11.150;2024-03-02T05:47:06;93806.44;;;6.48;64.51
67545;BME280;54380;47.770;11.150;2024-03-02T05:49:36;93805.63;;;6.47;64.92
67545;BME280;54380;47.770;11.150;2024-03-02T05:52:04;93803.28;;;6.46;64.47
67545;BME280;54380;47.770;11.150;2024-03-02T05:54:30;93800.84;;;6.39;64.23
67545;BME280;54380;47.770;11.150;2024-03-02T05:56:57;93809.44;;;6.29;64.15
67545;BME280;54380;47.770;11.150;2024-03-02T05:59:43;93812.22;;;6.18;64.30
67545;BME280;54380;47.770;11.150;2024-03-02T06:02:10;93811.88;;;6.09;64.01
67545;BME280;54380;47.770;11.150;2024-03-02T06:04:38;93815.22;;;6.04;64.32
67545;BME280;54380;47.770;11.150;2024-03-02T06:07:05;93805.25;;;6.01;64.27
67545;BME280;54380;47.770;11.150;2024-03-02T06:09:32;93807.31;;;5.99;64.91
67545;BME280;54380;47.770;11.150;2024-03-02T06:11:59;93808.88;;;5.95;64.74
67545;BME280;54380;47.770;11.150;2024-03-02T06:14:26;93806.50;;;5.93;64.41
67545;BME280;54380;47.770;11.150;2024-03-02T06:16:52;93814.56;;;5.92;63.99
67545;BME280;54380;47.770;11.150;2024-03-02T06:19:19;93803.25;;;5.86;64.33
67545;BME280;54380;47.770;11.150;2024-03-02T06:21:47;93811.81;;;5.82;64.32
67545;BME280;54380;47.770;11.150;2024-03-02T06:24:14;93812.59;;;5.77;64.83
67545;BME280;54380;47.770;11.150;2024-03-02T06:26:41;93813.09;;;5.79;64.78
67545;BME280;54380;47.770;11.150;2024-03-02T06:29:08;93802.41;;;5.81;64.67
67545;BME280;54380;47.770;11.150;2024-03-02T06:31:34;93797.09;;;5.76;64.10
67545;BME280;54380;47.770;11.150;2024-03-02T06:34:01;93800.78;;;5.75;64.33
67545;BME280;54380;47.770;11.150;2024-03-02T06:36:30;93800.22;;;5.72;64.59
67545;BME280;54380;47.770;11.150;2024-03-02T06:38:58;93802.28;;;5.70;64.39
67545;BME280;54380;47.770;11.150;2024-03-02T06:41:25;93796.28;;;5.70;64.38
67545;BME280;54380;47.770;11.150;2024-03-02T06:43:53;93802.56;;;5.69;64.41
67545;BME280;54380;47.770;11.150;2024-03-02T06:46:26;93795.47;;;5.69;65.29
67545;BME280;54380;47.770;11.150;2024-03-02T06:48:52;93798.66;;;5.71;65.26
67545;BME280;54380;47.770;11.150;2024-03-02T06:51:19;93794.50;;;5.76;65.17
67545;BME280;54380;47.770;11.150;2024-03-02T06:53:46;93793.75;;;5.80;64.53
67545;BME280;54380;47.770;11.150;2024-03-02T06:56:14;93795.66;;;5.85;64.58
67545;BME280;54380;47.770;11.150;2024-03-02T06:58:41;93796.16;;;5.87;64.47
67545;BME280;54380;47.770;11.150;2024-03-02T07:01:09;93794.03;;;5.84;64.24
67545;BME280;54380;47.770;11.150;2024-03-02T07:03:36;93796.13;;;5.82;64.29
67545;BME280;54380;47.770;11.150;2024-03-02T07:06:03;93801.34;;;5.82;64.70
67545;BME280;54380;47.770;11.150;2024-03-02T07:08:30;93792.72;;;5.81;64.95
67545;BME280;54380;47.770;11.150;2024-03-02T07:10:57;93802.41;;;5.81;64.43
67545;BME280;54380;47.770;11.150;2024-03-02T07:13:25;93796.94;;;5.82;64.83
67545;BME280;54380;47.770;11.150;2024-03-02T07:15:52;93801.34;;;5.82;64.92
67545;BME280;54380;47.770;11.150;2024-03-02T07:18:31;93791.97;;;5.86;64.96
67545;BME280;54380;47.770;11.150;2024-03-02T07:20:58;93792.81;;;5.91;65.30
67545;BME280;54380;47.770;11.150;2024-03-02T07:23:26;93789.78;;;6.00;64.99
67545;BME280;54380;47.770;11.150;2024-03-02T07:25:53;93790.59;;;6.05;65.16
67545;BME280;54380;47.770;11.150;2024-03-02T07:28:27;93787.56;;;6.13;65.54
67545;BME280;54380;47.770;11.150;2024-03-02T07:30:58;93790.00;;;6.25;65.51
67545;BME280;54380;47.770;11.150;2024-03-02T07:33:25;93790.09;;;6.35;65.74
67545;BME280;54380;47.770;11.150;2024-03-02T07:35:53;93788.66;;;6.55;65.98
67545;BME280;54380;47.770;11.150;2024-03-02T07:38:20;93796.44;;;6.77;66.22
67545;BME280;54380;47.770;11.150;2024-03-02T07:40:47;93800.78;;;7.03;66.06
67545;BME280;54380;47.770;11.150;2024-03-02T07:43:17;93797.25;;;7.30;66.41
67545;BME280;54380;47.770;11.150;2024-03-02T07:45:45;93798.66;;;7.58;66.84
67545;BME280;54380;47.770;11.150;2024-03-02T07:48:12;93794.03;;;7.91;66.29
67545;BME280;54380;47.770;11.150;2024-03-02T07:50:39;93795.66;;;8.28;66.31
67545;BME280;54380;47.770;11.150;2024-03-02T07:53:05;93794.88;;;8.63;66.00
67545;BME280;54380;47.770;11.150;2024-03-02T07:55:34;93796.19;;;8.91;65.51
67545;BME280;54380;47.770;11.150;2024-03-02T07:58:01;93802.72;;;9.19;65.24
67545;BME280;54380;47.770;11.150;2024-03-02T08:00:28;93793.38;;;9.48;65.29
67545;BME280;54380;47.770;11.150;2024-03-02T08:02:56;93790.38;;;9.75;64.78
67545;BME280;54380;47.770;11.150;2024-03-02T08:05:23;93792.06;;;10.05;64.09
67545;BME280;54380;47.770;11.150;2024-03-02T08:07:50;93790.06;;;10.31;64.02
67545;BME280;54380;47.770;11.150;2024-03-02T08:10:20;93793.91;;;10.49;63.45
67545;BME280;54380;47.770;11.150;2024-03-02T08:12:47;93793.25;;;10.67;62.70
67545;BME280;54380;47.770;11.150;2024-03-02T08:15:13;93794.41;;;10.85;62.75
67545;BME280;54380;47.770;11.150;2024-03-02T08:17:40;93798.25;;;10.98;62.26
67545;BME280;54380;47.770;11.150;2024-03-02T08:20:13;93798.38;;;11.12;62.29
67545;BME280;54380;47.770;11.150;2024-03-02T08:22:40;93800.81;;;11.32;62.24
67545;BME280;54380;47.770;11.150;2024-03-02T08:25:08;93802.50;;;11.47;61.71
67545;BME280;54380;47.770;11.150;2024-03-02T08:27:35;93805.47;;;11.64;61.57
67545;BME280;54380;47.770;11.150;2024-03-02T08:30:02;93794.13;;;11.64;60.82
67545;BME280;54380;47.770;11.150;2024-03-02T08:32:33;93804.44;;;11.60;60.74
67545;BME280;54380;47.770;11.150;2024-03-02T08:34:59;93796.31;;;11.57;60.71
67545;BME280;54380;47.770;11.150;2024-03-02T08:37:28;93788.22;;;11.48;60.38
67545;BME280;54380;47.770;11.150;2024-03-02T08:39:54;93799.47;;;11.35;60.37
67545;BME280;54380;47.770;11.150;2024-03-02T08:42:22;93794.25;;;11.30;60.36
67545;BME280;54380;47.770;11.150;2024-03-02T08:44:49;93800.63;;;11.24;59.95
67545;BME280;54380;47.770;11.150;2024-03-02T08:47:16;93798.38;;;11.12;60.15
67545;BME280;54380;47.770;11.150;2024-03-02T08:49:43;93801.06;;;11.07;60.28
67545;BME280;54380;47.770;11.150;2024-03-02T08:52:09;93802.72;;;10.97;59.90
67545;BME280;54380;47.770;11.150;2024-03-02T08:54:37;93803.03;;;10.96;60.28
67545;BME280;54380;47.770;11.150;2024-03-02T08:57:05;93809.88;;;10.97;59.80
67545;BME280;54380;47.770;11.150;2024-03-02T08:59:31;93806.41;;;11.02;59.12
67545;BME280;54380;47.770;11.150;2024-03-02T09:01:59;93802.97;;;11.01;59.77
67545;BME280;54380;47.770;11.150;2024-03-02T09:04:25;93805.31;;;11.03;59.65
67545;BME280;54380;47.770;11.150;2024-03-02T09:06:54;93801.91;;;11.02;59.62
67545;BME280;54380;47.770;11.150;2024-03-02T09:09:23;93795.63;;;10.98;59.69
67545;BME280;54380;47.770;11.150;2024-03-02T09:11:51;93803.03;;;10.96;59.72
67545;BME280;54380;47.770;11.150;2024-03-02T09:14:18;93800.38;;;10.96;60.04
67545;BME280;54380;47.770;11.150;2024-03-02T09:16:46;93804.03;;;11.00;59.38
67545;BME280;54380;47.770;11.150;2024-03-02T09:19:13;93796.91;;;11.01;59.64
67545;BME280;54380;47.770;11.150;2024-03-02T09:21:41;93796.91;;;11.01;59.25
67545;BME280;54380;47.770;11.150;2024-03-02T09:24:08;93794.19;;;11.06;59.12
67545;BME280;54380;47.770;11.150;2024-03-02T09:26:36;93794.44;;;11.09;59.29
67545;BME280;54380;47.770;11.150;2024-03-02T09:29:04;93790.97;;;11.14;58.77
67545;BME280;54380;47.770;11.150;2024-03-02T09:31:31;93794.09;;;11.16;59.29
67545;BME280;54380;47.770;11.150;2024-03-02T09:33:57;93784.00;;;11.23;59.05
67545;BME280;54380;47.770;11.150;2024-03-02T09:36:24;93792.66;;;11.29;58.51
67545;BME280;54380;47.770;11.150;2024-03-02T09:38:51;93794.25;;;11.30;58.73
67545;BME280;54380;47.770;11.150;2024-03-02T09:41:18;93790.53;;;11.31;58.27
67545;BME280;54380;47.770;11.150;2024-03-02T09:43:46;93792.03;;;11.37;58.65
67545;BME280;54380;47.770;11.150;2024-03-02T09:46:15;93782.69;;;11.45;58.50
67545;BME280;54380;47.770;11.150;2024-03-02T09:48:41;93787.16;;;11.49;58.25
67545;BME280;54380;47.770;11.150;2024-03-02T09:51:10;93789.16;;;11.57;58.44
67545;BME280;54380;47.770;11.150;2024-03-02T09:53:37;93786.97;;;11.64;58.14
67545;BME280;54380;47.770;11.150;2024-03-02T09:56:05;93788.41;;;11.76;58.53
67545;BME280;54380;47.770;11.150;2024-03-02T09:58:32;93790.09;;;11.91;58.68
67545;BME280;54380;47.770;11.150;2024-03-02T10:00:58;93788.75;;;12.12;58.60
67545;BME280;54380;47.770;11.150;2024-03-02T10:03:28;93775.97;;;12.19;58.31
67545;BME280;54380;47.770;11.150;2024-03-02T10:05:56;93780.59;;;12.27;58.82
67545;BME280;54380;47.770;11.150;2024-03-02T10:08:22;93787.03;;;12.40;58.61
67545;BME280;54380;47.770;11.150;2024-03-02T10:10:49;93780.44;;;12.57;58.23
67545;BME280;54380;47.770;11.150;2024-03-02T10:13:16;93772.16;;;12.77;57.92
67545;BME280;54380;47.770;11.150;2024-03-02T10:15:44;93770.50;;;12.95;57.64
67545;BME280;54380;47.770;11.150;2024-03-02T10:18:12;93767.09;;;13.08;56.63
67545;BME280;54380;47.770;11.150;2024-03-02T10:20:41;93774.19;;;13.13;57.17
67545;BME280;54380;47.770;11.150;2024-03-02T10:23:11;93766.13;;;13.18;56.32
67545;BME280;54380;47.770;11.150;2024-03-02T10:25:39;93762.97;;;13.35;56.29
67545;BME280;54380;47.770;11.150;2024-03-02T10:28:20;93766.69;;;13.61;55.29
67545;BME280;54380;47.770;11.150;2024-03-02T10:30:47;93758.22;;;13.73;55.27
67545;BME280;54380;47.770;11.150;2024-03-02T10:33:17;93752.41;;;13.85;54.57
67545;BME280;54380;47.770;11.150;2024-03-02T10:35:45;93759.06;;;13.96;53.58
67545;BME280;54380;47.770;11.150;2024-03-02T10:38:12;93752.97;;;13.96;53.19
67545;BME280;54380;47.770;11.150;2024-03-02T10:40:38;93749.25;;;13.83;53.04
67545;BME280;54380;47.770;11.150;2024-03-02T10:43:06;93746.19;;;13.90;52.53
67545;BME280;54380;47.770;11.150;2024-03-02T10:45:34;93748.03;;;14.03;52.43
67545;BME280;54380;47.770;11.150;2024-03-02T10:48:01;93743.28;;;14.14;52.72
67545;BME280;54380;47.770;11.150;2024-03-02T10:50:29;93745.81;;;14.19;52.92
67545;BME280;54380;47.770;11.150;2024-03-02T10:52:57;93734.78;;;14.25;52.82
67545;BME280;54380;47.770;11.150;2024-03-02T10:55:24;93730.75;;;14.28;53.18
67545;BME280;54380;47.770;11.150;2024-03-02T10:57:52;93728.16;;;14.37;53.45
67545;BME280;54380;47.770;11.150;2024-03-02T11:00:24;93721.72;;;14.52;52.47
67545;BME280;54380;47.770;11.150;2024-03-02T11:02:57;93717.09;;;14.57;53.20
67545;BME280;54380;47.770;11.150;2024-03-02T11:05:27;93715.22;;;14.89;52.61
67545;BME280;54380;47.770;11.150;2024-03-02T11:08:00;93713.94;;;15.18;52.62
67545;BME280;54380;47.770;11.150;2024-03-02T11:10:34;93703.22;;;15.31;51.42
67545;BME280;54380;47.770;11.150;2024-03-02T11:13:02;93706.91;;;15.22;51.47
67545;BME280;54380;47.770;11.150;2024-03-02T11:15:33;93703.84;;;15.37;52.06
67545;BME280;54380;47.770;11.150;2024-03-02T11:18:03;93699.38;;;15.64;51.79
67545;BME280;54380;47.770;11.150;2024-03-02T11:20:32;93698.59;;;15.63;51.71
67545;BME280;54380;47.770;11.150;2024-03-02T11:23:05;93699.72;;;15.71;49.94
67545;BME280;54380;47.770;11.150;2024-03-02T11:25:33;93687.94;;;15.63;51.11
67545;BME280;54380;47.770;11.150;2024-03-02T11:28:02;93690.06;;;15.84;50.88
67545;BME280;54380;47.770;11.150;2024-03-02T11:30:48;93680.97;;;15.85;51.28
67545;BME280;54380;47.770;11.150;2024-03-02T11:33:23;93674.09;;;16.10;51.06
67545;BME280;54380;47.770;11.150;2024-03-02T11:35:50;93678.44;;;16.32;50.85
67545;BME280;54380;47.770;11.150;2024-03-02T11:38:19;93660.38;;;16.63;50.76
67545;BME280;54380;47.770;11.150;2024-03-02T11:40:46;93657.69;;;16.81;50.41
67545;BME280;54380;47.770;11.150;2024-03-02T11:43:13;93658.28;;;16.95;48.48
67545;BME280;54380;47.770;11.150;2024-03-02T11:45:42;93652.69;;;17.18;47.53
67545;BME280;54380;47.770;11.150;2024-03-02T11:48:12;93643.03;;;17.34;46.80
67545;BME280;54380;47.770;11.150;2024-03-02T11:50:42;93638.88;;;17.45;47.31
67545;BME280;54380;47.770;11.150;2024-03-02T11:53:10;93629.16;;;17.49;46.43
67545;BME280;54380;47.770;11.150;2024-03-02T11:55:41;93622.28;;;17.40;46.53
67545;BME280;54380;47.770;11.150;2024-03-02T11:58:14;93615.81;;;17.49;46.80
67545;BME280;54380;47.770;11.150;2024-03-02T12:00:47;93611.72;;;17.52;47.16
67545;BME280;54380;47.770;11.150;2024-03-02T12:03:14;93611.25;;;17.71;46.58
67545;BME280;54380;47.770;11.150;2024-03-02T12:05:42;93602.38;;;17.88;46.55
67545;BME280;54380;47.770;11.150;2024-03-02T12:08:09;93608.66;;;18.04;45.50
67545;BME280;54380;47.770;11.150;2024-03-02T12:10:36;93602.38;;;17.88;45.51
67545;BME280;54380;47.770;11.150;2024-03-02T12:13:06;93589.84;;;17.80;45.46
67545;BME280;54380;47.770;11.150;2024-03-02T12:15:35;93584.78;;;17.87;46.21
67545;BME280;54380;47.770;11.150;2024-03-02T12:18:04;93579.03;;;17.97;45.23
67545;BME280;54380;47.770;11.150;2024-03-02T12:20:32;93575.75;;;17.79;45.58
67545;BME280;54380;47.770;11.150;2024-03-02T12:23:00;93564.25;;;17.78;45.53
67545;BME280;54380;47.770;11.150;2024-03-02T12:25:28;93565.06;;;17.79;45.65
67545;BME280;54380;47.770;11.150;2024-03-02T12:27:57;93559.53;;;17.84;44.62
67545;BME280;54380;47.770;11.150;2024-03-02T12:30:27;93554.09;;;17.93;44.07
67545;BME280;54380;47.770;11.150;2024-03-02T12:32:57;93548.25;;;17.99;44.65
67545;BME280;54380;47.770;11.150;2024-03-02T12:35:25;93546.81;;;18.02;44.87
67545;BME280;54380;47.770;11.150;2024-03-02T12:37:53;93537.25;;;18.13;44.76
67545;BME280;54380;47.770;11.150;2024-03-02T12:40:21;93533.28;;;18.19;45.10
67545;BME280;54380;47.770;11.150;2024-03-02T12:42:50;93525.06;;;18.25;45.01
67545;BME280;54380;47.770;11.150;2024-03-02T12:45:18;93529.50;;;18.20;44.93
67545;BME280;54380;47.770;11.150;2024-03-02T12:47:55;93524.16;;;18.20;45.29
67545;BME280;54380;47.770;11.150;2024-03-02T12:50:22;93525.06;;;18.25;44.94
67545;BME280;54380;47.770;11.150;2024-03-02T12:52:52;93525.91;;;18.04;44.58
67545;BME280;54380;47.770;11.150;2024-03-02T12:55:20;93522.50;;;17.83;45.32
67545;BME280;54380;47.770;11.150;2024-03-02T12:57:49;93509.28;;;17.86;44.89
67545;BME280;54380;47.770;11.150;2024-03-02T13:00:18;93503.84;;;17.95;45.30